To NAV CANADA Home Page Login to a new session Search on AWWS site Feedback and Comments Disclaimer Vers la page française équivalente Tips FAQ What's new on the site To the Forecasts and Observations / NOTAM section To "File a Flight Plan" website Publications and other links Update of the User's profile FIC Telephone Numbers My Weather Data Folder Route Weather Data Regional Weather Data Local Weather Data To the Forecasts and Observations / NOTAM section
Request Generated 04/01/2015 at 05:46:37 UTC . Weather information available at that time is displayed.

METAR/TAF

FORT ST. JOHN/BC    

METAR CYXJ 010500Z 32007KT 15SM BKN060 OVC130 M00/M03 A2972 RMK
SC5AC3 SLP095=
METAR CYXJ 010400Z 34008KT 15SM OVC062 00/M03 A2972 RMK SC8 SLP092=
METAR CYXJ 010300Z 35010KT 15SM OVC058 01/M02 A2970 RMK SC8 SLP086=

TAF CYXJ 010038Z 0101/0113 34008KT P6SM SCT040 OVC060 TEMPO 0101/0107
P6SM -SHRA OVC040
FM010700 34008KT P6SM SCT020 OVC040 TEMPO 0107/0113 2SM -SHSN
OVC020
RMK NXT FCST BY 010700Z=
Your time UTC time
Weather data provided by Environment Canada and NAV CANADA